Washington, District of Columbia
Current Conditions -  °F | °C
As of 3:52 PM on Saturday 25 Oct 2014 (Local Time) from KDCA Reporting Station
Scattered Clouds Scattered Clouds  
Wind Chill: 74°   Ceiling: Unl
Heat Index: 74°   Visibility: 10mi
Dew Point: 40°   Wind: 14mph
Humidity: 29%   Direction: 250°WSW
Pressure: 29.81"   Gusts: NA
Location:  38.89°N, 77.03°W
Report Text: KDCA 251952Z 25012KT 10SM SCT100 23/04 A2981 RMK AO2 SLP093 T02330044
Loading
Personal Weather Stations






























Interactive Weather Map New forecast layout! Learn more

10-Day Weather Forecast

Advertisements
Track Severe Weather on mobile